Flight Track Log - Related Links

Times and Time Zones

All times are in EDT time to prevent confusion due to time zone crossing. See the ASQ4151 flight status page for this flight to view local times or setup timezone preferences in your user account.

Time Position Orientation Groundspeed Altitude Reporting Facility
EDT Latitude Longitude Course Direction KTS MPH feet Rate Location/Type
Sat 09:44:22 PM 29.9617 -95.3436 North 151 174 800  Level Houston Center
Sat 09:45:35 PM 29.9800 -95.2908 68° East 244 281 3,500 2,121 Climbing Houston Center
Sat 09:46:18 PM 30.0161 -95.2869 North 243 280 4,900 2,712 Climbing Houston Center
Sat 09:47:00 PM 30.3130 -95.1987 14° North  Level FlightAware Approximate
Sat 09:47:19 PM 30.1039 -95.2614 14° North 269 310 8,200  Level Houston Center
Sat 09:47:37 PM 30.1236 -95.2539 18° North 288 331 8,900 2,400 Climbing Houston Center
Sat 09:48:00 PM 30.4235 -95.1549 23° Northeast  Level FlightAware Approximate
Sat 09:48:19 PM 30.1831 -95.2394 12° North 288 331 10,600  Level Houston Center
Sat 09:49:00 PM 30.5293 -95.1000 North  Level FlightAware Approximate
Sat 09:49:20 PM 30.2758 -95.2122 14° North 339 390 11,500  Level Houston Center
Sat 09:50:21 PM 30.3781 -95.1836 14° North 372 428 13,500 1,869 Climbing Houston Center
Sat 09:51:22 PM 30.4700 -95.1511 17° North 379 436 15,300 1,770 Climbing Houston Center
Sat 09:52:23 PM 30.5653 -95.0889 29° Northeast 390 449 17,100 1,537 Climbing Houston Center
Sat 09:53:23 PM 30.6647 -95.0286 28° Northeast 402 463 18,400 1,537 Climbing Houston Center
Sat 09:54:24 PM 30.7869 -94.9525 28° Northeast 415 478 20,200 1,623 Climbing Houston Center
Sat 09:55:25 PM 30.8906 -94.8872 28° Northeast 422 486 21,700 1,463 Climbing Houston Center
Sat 09:56:27 PM 30.9989 -94.8203 28° Northeast 423 487 23,200 1,475 Climbing Fort Worth Center
Sat 09:57:27 PM 31.1019 -94.7544 29° Northeast 425 489 24,700 1,550 Climbing Fort Worth Center
Sat 09:58:27 PM 31.2069 -94.6858 29° Northeast 431 496 26,300 1,550 Climbing Fort Worth Center
Sat 09:59:27 PM 31.3139 -94.6147 30° Northeast 431 496 27,800 1,400 Climbing Fort Worth Center
Sat 10:00:27 PM 31.4083 -94.5486 31° Northeast 425 489 29,100 1,400 Climbing Fort Worth Center
Sat 10:01:27 PM 31.5111 -94.4772 31° Northeast 430 495 30,600 1,500 Climbing Fort Worth Center
Sat 10:02:27 PM 31.6139 -94.4056 31° Northeast 430 495 32,100 1,500 Climbing Fort Worth Center
Sat 10:03:27 PM 31.7167 -94.3364 30° Northeast 430 495 33,600 1,400 Climbing Fort Worth Center
Sat 10:04:27 PM 31.8169 -94.2644 31° Northeast 425 489 34,900 1,150 Climbing Fort Worth Center
Sat 10:05:27 PM 31.9156 -94.1950 31° Northeast 414 476 35,900 1,000 Climbing Fort Worth Center
Sat 10:06:27 PM 32.0092 -94.1061 39° Northeast 419 482 36,900 550 Climbing Fort Worth Center
Sat 10:07:27 PM 32.1028 -94.0144 40° Northeast 429 494 37,000 50 Climbing Fort Worth Center
Sat 10:08:27 PM 32.2083 -93.9000 43° Northeast 440 506 37,000  Level Fort Worth Center
Sat 10:09:27 PM 32.2997 -93.8153 38° Northeast 464 534 37,000  Level Fort Worth Center
Sat 10:10:27 PM 32.4075 -93.7125 39° Northeast 477 549 37,000  Level Fort Worth Center
Sat 10:11:27 PM 32.5128 -93.6072 40° Northeast 485 558 37,000  Level Fort Worth Center
Sat 10:12:27 PM 32.6183 -93.5042 39° Northeast 485 558 37,000  Level Fort Worth Center
Sat 10:13:27 PM 32.7214 -93.4008 40° Northeast 485 558 37,000  Level Fort Worth Center
Sat 10:14:27 PM 32.8286 -93.2972 39° Northeast 485 558 37,000  Level Fort Worth Center
Sat 10:15:27 PM 32.9378 -93.1883 40° Northeast 490 564 37,000  Level Fort Worth Center
Sat 10:16:27 PM 33.0428 -93.0842 40° Northeast 495 570 37,000  Level Fort Worth Center
Sat 10:18:18 PM 33.2392 -92.8881 40° Northeast 511 588 37,000  Level Memphis Center
Sat 10:19:18 PM 33.3458 -92.7794 40° Northeast 511 588 37,000  Level Memphis Center
Sat 10:20:18 PM 33.4564 -92.6678 40° Northeast 511 588 37,000  Level Memphis Center
Sat 10:21:18 PM 33.5628 -92.5611 40° Northeast 511 588 37,000  Level Memphis Center
Sat 10:22:18 PM 33.6689 -92.4539 40° Northeast 500 575 37,000  Level Memphis Center
Sat 10:23:18 PM 33.7731 -92.3464 41° Northeast 500 575 37,000  Level Memphis Center
Sat 10:24:18 PM 33.8789 -92.2411 40° Northeast 494 568 37,000  Level Memphis Center
Sat 10:25:18 PM 33.9828 -92.1333 41° Northeast 489 563 37,000  Level Memphis Center
Sat 10:26:18 PM 34.0822 -92.0250 42° Northeast 489 563 37,000  Level Memphis Center
Sat 10:27:18 PM 34.1881 -91.9164 40° Northeast 489 563 37,000  Level Memphis Center
Sat 10:28:18 PM 34.2939 -91.8028 42° Northeast 495 570 37,000  Level Memphis Center
Sat 10:29:18 PM 34.4056 -91.6914 39° Northeast 490 564 37,000  Level Memphis Center
Sat 10:30:18 PM 34.5131 -91.5822 40° Northeast 484 557 37,000  Level Memphis Center
Sat 10:31:18 PM 34.6122 -91.4725 42° Northeast 493 567 37,000  Level Memphis Center
Sat 10:32:18 PM 34.7069 -91.3728 41° Northeast 488 562 37,000  Level Memphis Center
Sat 10:33:18 PM 34.8100 -91.2653 41° Northeast 497 572 37,000  Level Memphis Center
Sat 10:34:18 PM 34.9172 -91.1522 41° Northeast 497 572 37,000  Level Memphis Center
Sat 10:35:18 PM 35.0222 -91.0392 41° Northeast 491 565 37,000  Level Memphis Center
Sat 10:36:18 PM 35.1250 -90.9308 41° Northeast 491 565 37,000  Level Memphis Center
Sat 10:37:18 PM 35.2361 -90.8094 42° Northeast 491 565 37,000  Level Memphis Center
Sat 10:38:18 PM 35.3386 -90.6956 42° Northeast 491 565 37,000  Level Memphis Center
Sat 10:39:18 PM 35.4411 -90.5864 41° Northeast 491 565 37,000  Level Memphis Center
Sat 10:40:18 PM 35.5456 -90.4719 42° Northeast 496 571 37,000  Level Memphis Center
Sat 10:41:18 PM 35.6478 -90.3622 41° Northeast 486 559 37,000  Level Memphis Center
Sat 10:42:18 PM 35.7414 -90.2522 44° Northeast 481 554 37,000  Level Memphis Center
Sat 10:43:18 PM 35.8436 -90.1419 41° Northeast 481 554 37,000  Level Memphis Center
Sat 10:44:18 PM 35.9456 -90.0339 41° Northeast 481 554 37,000  Level Memphis Center
Sat 10:45:18 PM 36.0453 -89.9231 42° Northeast 481 554 37,000  Level Memphis Center
Sat 10:46:18 PM 36.1450 -89.8119 42° Northeast 481 554 37,000  Level Memphis Center
Sat 10:47:18 PM 36.2486 -89.6981 42° Northeast 486 559 37,000  Level Memphis Center
Sat 10:48:18 PM 36.3500 -89.5892 41° Northeast 486 559 37,000  Level Memphis Center
Sat 10:49:18 PM 36.4328 -89.5006 41° Northeast 486 559 37,000  Level Memphis Center
Sat 10:50:18 PM 36.5467 -89.3703 43° Northeast 492 566 37,000  Level Memphis Center
Sat 10:51:18 PM 36.6478 -89.2528 43° Northeast 492 566 37,000  Level Memphis Center
Sat 10:52:18 PM 36.7467 -89.1400 42° Northeast 487 560 37,000  Level Memphis Center
Sat 10:53:18 PM 36.8475 -89.0244 43° Northeast 487 560 37,000  Level Memphis Center
Sat 10:54:18 PM 36.9506 -88.9111 41° Northeast 487 560 37,000  Level Memphis Center
Sat 10:55:18 PM 37.0492 -88.7947 43° Northeast 492 566 37,000  Level Memphis Center
Sat 10:56:18 PM 37.1497 -88.6783 43° Northeast 487 560 37,000 -350 Level Memphis Center
Sat 10:57:18 PM 37.2481 -88.5667 42° Northeast 487 560 36,300 -894 Descending Memphis Center
Sat 10:59:26 PM 37.4550 -88.3192 43° Northeast 481 554 34,200 -1,021 Descending Indianapolis Center
Sat 11:00:26 PM 37.5539 -88.2047 43° Northeast 479 551 33,100 -600 Descending Indianapolis Center
Sat 11:01:26 PM 37.6519 -88.0892 43° Northeast 477 549 33,000 -50 Descending Indianapolis Center
Sat 11:02:27 PM 37.7525 -87.9697 43° Northeast 488 562 33,000  Level Indianapolis Center
Sat 11:03:27 PM 37.8511 -87.8528 43° Northeast 492 566 33,000  Level Indianapolis Center
Sat 11:04:28 PM 37.9544 -87.7400 41° Northeast 490 564 33,000  Level Indianapolis Center
Sat 11:05:28 PM 38.0731 -87.6572 29° Northeast 480 552 33,000 -595 Level Indianapolis Center
Sat 11:06:29 PM 38.1906 -87.5722 30° Northeast 480 552 31,800 -1,983 Descending Indianapolis Center
Sat 11:07:29 PM 38.3056 -87.4892 30° Northeast 471 542 29,000 -2,950 Descending Indianapolis Center
Sat 11:08:29 PM 38.4197 -87.4069 29° Northeast 464 534 25,900 -2,975 Descending Indianapolis Center
Sat 11:09:30 PM 38.5319 -87.3247 30° Northeast 460 529 23,000 -2,678 Descending Indianapolis Center
Sat 11:10:30 PM 38.6406 -87.2453 30° Northeast 448 516 20,500 -2,479 Descending Indianapolis Center
Sat 11:11:31 PM 38.7425 -87.1703 30° Northeast 426 490 18,000 -2,331 Descending Indianapolis Center
Sat 11:12:31 PM 38.8417 -87.0978 30° Northeast 412 474 15,800 -2,300 Descending Indianapolis Center
Sat 11:13:31 PM 38.9322 -87.0303 30° Northeast 385 443 13,400 -2,083 Descending Indianapolis Center
Sat 11:14:32 PM 39.0200 -86.9656 30° Northeast 373 429 11,600 -1,190 Descending Indianapolis Center
Sat 11:15:32 PM 39.1028 -86.9036 30° Northeast 357 411 11,000 -298 Descending Indianapolis Center
Sat 11:16:33 PM 39.1731 -86.8475 32° Northeast 317 365 11,000  Level Indianapolis Center
Sat 11:17:33 PM 39.2489 -86.7794 35° Northeast 319 367 11,000 -50 Level Indianapolis Center
Sat 11:18:33 PM 39.3239 -86.7083 36° Northeast 327 376 10,900 -793 Descending Indianapolis Center
Sat 11:19:34 PM 39.3858 -86.6489 37° Northeast 296 341 9,400 -1,475 Descending Indianapolis Center
Sat 11:20:35 PM 39.4483 -86.5919 35° Northeast 280 322 7,900 -1,550 Descending Indianapolis Center
Sat 11:21:34 PM 39.5089 -86.5408 33° Northeast 270 311 6,300 -1,550 Descending Indianapolis Center
Sat 11:22:35 PM 39.5622 -86.4856 39° Northeast 256 295 4,800 -1,190 Descending Indianapolis Center
Sat 11:23:35 PM 39.6039 -86.4294 46° Northeast 249 287 3,900 -900 Descending Indianapolis Center

Login

Don't have an account? Register now (free) for customized features, flight alerts, and more!